Latest Weather Observations for Wangaratta

IDV60801

Issued at 6:32 pm EST Sunday 28 August 2016 (issued every 30 minutes, with the page automatically refreshed every 10 minutes)

About weather observations | Map of weather stations | Latest weather observations for VIC | Other Formats
Station Details ID: 082138 Name: WANGARATTA AERO Lat: -36.42 Lon: 146.31 Height: 152.6 m
Data from the previous 72 hours. | See also: Recent months at Wangaratta
Date/Time
EST
Temp
°C
App
Temp
°C
Dew
Point
°C
Rel
Hum
%
Delta-T
°C
Wind Press
QNH
hPa
Press
MSL
hPa
Rain since
9am
mm
Dir  Spd
km/h
Gust
km/h
Spd
kts
Gust
kts
28/06:30pm 9.7 9.2 7.8 88 0.9 CALM 0 0 0 0 1021.9 1022.2 0.0
28/06:00pm 11.5 10.8 8.4 81 1.5 SE 2 6 1 3 1021.7 1022.0 0.0
28/05:30pm 13.6 12.0 8.0 69 2.8 ESE 6 7 3 4 1021.3 1021.6 0.0
28/05:00pm 15.1 13.4 7.6 61 3.7 E 6 9 3 5 1021.1 1021.4 0.0
28/04:30pm 15.0 12.7 7.5 61 3.7 N 9 11 5 6 1021.0 1021.3 0.0
28/04:00pm 15.5 13.5 7.3 58 4.1 NE 7 13 4 7 1021.1 1021.4 0.0
28/03:30pm 15.1 13.1 7.2 59 3.9 N 7 11 4 6 1021.1 1021.4 0.0
28/03:00pm 14.9 11.6 6.5 57 4.1 N 13 17 7 9 1021.1 1021.4 0.0
28/02:30pm 14.6 11.3 6.2 57 4.1 N 13 20 7 11 1021.1 1021.4 0.0
28/02:00pm 14.3 11.3 6.2 58 3.9 N 11 20 6 11 1021.3 1021.6 0.0
28/01:30pm 14.0 11.3 5.6 57 4.0 NE 9 17 5 9 1021.7 1022.0 0.0
28/01:00pm 13.8 11.1 5.4 57 4.0 ENE 9 17 5 9 1022.1 1022.4 0.0
28/12:30pm 13.4 10.2 5.3 58 3.8 N 11 15 6 8 1022.6 1022.9 0.0
28/12:00pm 13.2 10.1 5.4 59 3.7 NNE 11 17 6 9 1022.9 1023.2 0.0
28/11:30am 12.7 9.6 5.6 62 3.3 N 11 50 6 27 1023.0 1023.3 0.0
28/11:00am 11.4 8.7 5.7 68 2.7 NNE 9 13 5 7 1023.5 1023.8 0.0
28/10:30am 10.7 8.0 5.5 70 2.4 ENE 9 13 5 7 1023.7 1024.0 0.0
28/10:00am 9.4 7.0 5.2 75 1.9 NE 7 11 4 6 1023.7 1024.0 0.0
28/09:30am 8.7 7.8 6.0 83 1.2 CALM 0 0 0 0 1024.1 1024.4 0.0
28/09:00am 7.7 5.4 5.7 87 0.9 SSE 7 7 4 4 1023.9 1024.2 0.0
28/08:30am 6.5 5.6 6.1 97 0.2 CALM 0 0 0 0 1023.9 1024.2 0.0
28/08:00am 5.6 4.6 5.5 99 0.0 CALM 0 0 0 0 1023.8 1024.1 0.0
28/07:30am 4.7 3.5 4.6 99 0.0 CALM 0 0 0 0 1023.6 1023.9 0.0
28/07:00am 4.3 1.9 4.2 99 0.0 WNW 6 7 3 4 1023.4 1023.7 0.0
28/06:30am 3.8 1.7 3.7 99 0.0 WSW 4 7 2 4 1023.1 1023.4 0.0
28/06:00am 3.7 2.3 3.6 99 0.0 CALM 0 0 0 0 1022.7 1023.0 0.0
28/05:30am 4.3 2.3 4.2 99 0.0 SE 4 6 2 3 1022.6 1022.9 0.0
28/05:00am 4.0 1.5 3.9 99 0.0 SSE 6 9 3 5 1022.6 1022.9 0.0
28/04:30am 3.3 1.8 3.2 99 0.0 CALM 0 0 0 0 1022.2 1022.5 0.0
28/04:00am 2.9 1.4 2.8 99 0.0 CALM 0 0 0 0 1022.0 1022.3 0.0
28/03:30am 3.3 1.8 2.9 97 0.2 CALM 0 0 0 0 1021.8 1022.1 0.0
28/03:00am 4.0 2.6 3.6 97 0.2 CALM 0 0 0 0 1022.0 1022.3 0.0
28/02:30am 4.7 3.4 4.1 96 0.3 CALM 0 0 0 0 1022.1 1022.4 0.0
28/02:00am 5.0 3.8 4.7 98 0.1 CALM 0 0 0 0 1022.5 1022.8 0.0
28/01:30am 4.8 3.2 4.5 98 0.1 E 2 7 1 4 1022.6 1022.9 0.0
28/01:00am 3.7 1.4 2.8 94 0.4 NE 4 6 2 3 1022.6 1022.9 0.0
28/12:30am 4.7 1.7 4.1 96 0.3 N 9 9 5 5 1022.5 1022.8 0.0
28/12:00am 4.9 3.6 4.2 95 0.3 CALM 0 0 0 0 1022.5 1022.8 0.0
 
Date/Time
EST
Temp
°C
App
Temp
°C
Dew
Point
°C
Rel
Hum
%
Delta-T
°C
Wind Press
QNH
hPa
Press
MSL
hPa
Rain since
9am
mm
Dir  Spd
km/h
Gust
km/h
Spd
kts
Gust
kts
27/11:30pm 4.7 3.3 3.8 94 0.4 CALM 0 0 0 0 1022.9 1023.2 0.0
27/11:00pm 6.0 4.9 5.1 94 0.4 CALM 0 0 0 0 1022.9 1023.2 0.0
27/10:30pm 6.0 4.9 5.3 95 0.3 CALM 0 0 0 0 1023.2 1023.5 0.0
27/10:00pm 6.5 5.4 5.3 92 0.5 CALM 0 0 0 0 1023.1 1023.4 0.0
27/09:30pm 6.7 5.7 5.7 93 0.4 CALM 0 0 0 0 1023.1 1023.4 0.0
27/09:00pm 6.8 5.7 5.3 90 0.7 CALM 0 0 0 0 1022.9 1023.2 0.0
27/08:30pm 7.2 6.1 5.0 86 1.0 CALM 0 0 0 0 1022.8 1023.1 0.0
27/08:00pm 6.7 5.6 5.2 90 0.7 CALM 0 0 0 0 1022.9 1023.2 0.0
27/07:30pm 7.6 6.5 5.2 85 1.1 CALM 0 0 0 0 1022.6 1022.9 0.0
27/07:00pm 8.0 7.1 6.1 88 0.9 CALM 0 0 0 0 1022.7 1023.0 0.0
27/06:30pm 9.1 7.6 4.9 75 1.9 NNE 2 7 1 4 1022.5 1022.8 0.0
27/06:00pm 9.7 7.2 4.9 72 2.2 NNE 7 9 4 5 1021.9 1022.2 0.0
27/05:30pm 10.5 7.9 4.4 66 2.7 NE 7 11 4 6 1021.7 1022.0 0.0
27/05:00pm 11.3 8.7 3.3 58 3.5 NW 6 6 3 3 1021.8 1022.1 0.0
27/04:30pm 11.8 9.1 3.8 58 3.6 WNW 7 9 4 5 1022.1 1022.4 0.0
27/04:00pm 11.9 7.6 3.2 55 3.8 NW 15 19 8 10 1022.0 1022.3 0.0
27/03:30pm 12.6 9.7 2.7 51 4.4 N 7 13 4 7 1021.9 1022.2 0.0
27/03:00pm 12.0 8.4 2.7 53 4.1 NNW 11 17 6 9 1022.0 1022.3 0.0
27/02:30pm 12.2 9.6 3.4 55 3.9 E 6 9 3 5 1022.4 1022.7 0.0
27/02:00pm 11.9 9.6 2.9 54 4.0 NNE 4 13 2 7 1022.6 1022.9 0.0
27/01:30pm 11.4 8.8 3.2 57 3.6 W 6 7 3 4 1022.9 1023.2 0.0
27/01:00pm 11.3 9.6 4.1 61 3.2 SSW 2 9 1 5 1023.2 1023.5 0.0
27/12:30pm 11.1 8.5 3.4 59 3.4 WSW 6 9 3 5 1023.5 1023.8 0.0
27/12:00pm 11.2 9.9 4.2 62 3.1 CALM 0 7 0 4 1023.8 1024.1 0.0
27/11:30am 10.8 8.4 5.3 69 2.5 NNE 7 13 4 7 1024.0 1024.3 0.0
27/11:00am 10.3 8.1 5.3 71 2.3 NE 6 11 3 6 1024.3 1024.6 0.0
27/10:30am 9.7 8.3 5.3 74 2.0 NNE 2 7 1 4 1024.7 1025.0 0.0
27/10:00am 8.7 6.5 5.1 78 1.6 NNE 6 9 3 5 1024.8 1025.1 0.0
27/09:30am 7.7 5.5 5.3 85 1.1 ENE 6 9 3 5 1025.0 1025.3 0.0
27/09:00am 6.2 5.0 4.8 91 0.6 CALM 0 0 0 0 1025.0 1025.3 0.0
27/08:30am 6.3 5.4 6.2 99 0.0 CALM 0 0 0 0 1024.6 1024.9 0.0
27/08:00am 4.2 2.9 4.1 99 0.0 CALM 0 0 0 0 1024.5 1024.8 0.0
27/07:33am 2.5 0.9 2.4 99 0.0 CALM 0 2 0 1 1024.1 1024.4 0.0
27/07:30am 2.1 0.4 2.0 99 0.0 CALM 0 2 0 1 1024.0 1024.3 0.0
27/07:00am 1.0 -0.8 0.9 99 0.0 CALM 0 0 0 0 1023.7 1024.0 0.0
27/06:30am 1.7 -1.4 1.6 99 0.0 S 7 9 4 5 1023.4 1023.7 0.0
27/06:07am 2.2 -0.6 2.1 99 0.0 SSW 6 7 3 4 1023.3 1023.6 0.0
27/06:00am 1.8 -0.3 1.7 99 0.0 S 2 7 1 4 1023.3 1023.6 0.0
27/05:50am 2.2 -0.6 2.1 99 0.0 SE 6 6 3 3 1023.1 1023.4 0.0
27/05:30am 2.5 -0.2 2.4 99 0.0 S 6 7 3 4 1023.1 1023.4 0.0
27/05:00am 1.8 0.1 1.7 99 0.0 CALM 0 0 0 0 1022.8 1023.1 0.0
27/04:30am 2.1 0.4 2.0 99 0.0 CALM 0 0 0 0 1022.6 1022.9 0.0
27/04:00am 3.1 1.6 3.0 99 0.0 CALM 0 0 0 0 1022.4 1022.7 0.0
27/03:30am 3.1 1.5 2.7 97 0.2 CALM 0 0 0 0 1022.4 1022.7 0.0
27/03:15am 4.1 2.7 3.5 96 0.2 CALM 0 0 0 0 1022.4 1022.7 0.0
27/03:00am 4.5 3.1 3.8 95 0.3 CALM 0 0 0 0 1022.4 1022.7 0.0
27/02:30am 5.4 4.2 4.4 93 0.4 CALM 0 0 0 0 1022.5 1022.8 0.0
27/02:00am 6.0 4.8 4.6 91 0.6 CALM 0 0 0 0 1022.8 1023.1 0.0
27/01:30am 6.3 5.1 4.6 89 0.7 CALM 0 0 0 0 1022.9 1023.2 0.0
27/01:00am 7.1 4.5 4.2 82 1.3 W 7 11 4 6 1023.1 1023.4 0.0
27/12:30am 6.9 3.5 4.2 83 1.2 W 11 13 6 7 1023.2 1023.5 0.0
27/12:00am 7.4 4.3 3.8 78 1.5 WNW 9 11 5 6 1023.1 1023.4 0.0
 
Date/Time
EST
Temp
°C
App
Temp
°C
Dew
Point
°C
Rel
Hum
%
Delta-T
°C
Wind Press
QNH
hPa
Press
MSL
hPa
Rain since
9am
mm
Dir  Spd
km/h
Gust
km/h
Spd
kts
Gust
kts
26/11:30pm 8.9 5.6 4.3 73 2.0 W 11 13 6 7 1023.2 1023.5 0.0
26/11:00pm 8.1 5.2 4.9 80 1.4 W 9 11 5 6 1022.9 1023.2 0.0
26/10:30pm 8.3 5.4 4.7 78 1.6 W 9 11 5 6 1022.8 1023.1 0.0
26/10:00pm 8.3 5.9 5.1 80 1.4 W 7 9 4 5 1022.7 1023.0 0.0
26/09:30pm 9.1 6.7 4.3 72 2.1 W 6 7 3 4 1022.6 1022.9 0.0
26/09:00pm 9.3 8.2 5.1 75 1.9 CALM 0 0 0 0 1022.5 1022.8 0.0
26/08:30pm 9.5 6.6 4.5 71 2.2 W 9 13 5 7 1022.4 1022.7 0.0
26/08:00pm 9.7 8.1 4.5 70 2.3 W 2 7 1 4 1022.3 1022.6 0.0
26/07:30pm 9.5 7.1 5.1 74 2.0 W 7 11 4 6 1022.2 1022.5 0.0
26/07:00pm 9.8 6.5 4.8 71 2.3 WNW 11 13 6 7 1022.0 1022.3 0.0
26/06:30pm 9.8 6.9 4.6 70 2.3 WSW 9 11 5 6 1021.7 1022.0 0.0
26/06:00pm 10.1 7.2 4.7 69 2.4 WSW 9 11 5 6 1021.3 1021.6 0.0
26/05:30pm 10.9 8.0 4.4 64 2.9 WSW 9 13 5 7 1020.9 1021.2 0.0
26/05:00pm 10.5 7.6 4.4 66 2.7 WSW 9 13 5 7 1020.8 1021.1 0.0
26/04:30pm 11.6 8.7 4.6 62 3.2 WSW 9 13 5 7 1020.7 1021.0 0.0
26/04:00pm 12.8 8.8 5.0 59 3.6 WSW 15 20 8 11 1020.6 1020.9 0.0
26/03:30pm 12.2 8.5 4.2 58 3.6 WSW 13 17 7 9 1020.5 1020.8 0.0
26/03:00pm 11.8 7.9 3.6 57 3.7 SW 13 17 7 9 1020.6 1020.9 0.0
26/02:30pm 12.2 8.1 4.4 59 3.6 WSW 15 20 8 11 1020.6 1020.9 0.0
26/02:00pm 12.4 8.1 3.1 53 4.1 WSW 15 22 8 12 1020.6 1020.9 0.0
26/01:30pm 12.4 8.5 3.4 54 4.0 W 13 19 7 10 1020.8 1021.1 0.0
26/01:00pm 11.7 7.1 3.5 57 3.6 W 17 20 9 11 1021.1 1021.4 0.0
26/12:30pm 12.2 8.4 3.9 57 3.8 W 13 19 7 10 1021.4 1021.7 0.0
26/12:00pm 10.7 6.1 3.5 61 3.2 SSW 17 22 9 12 1021.7 1022.0 0.0
26/11:30am 10.8 8.1 3.8 62 3.1 WSW 7 17 4 9 1021.9 1022.2 0.0
26/11:00am 10.6 9.5 4.9 68 2.6 CALM 0 0 0 0 1022.1 1022.4 0.0
26/10:30am 9.3 7.5 5.5 77 1.7 WNW 4 7 2 4 1022.2 1022.5 0.0
26/10:00am 8.3 7.2 5.2 81 1.4 CALM 0 0 0 0 1022.4 1022.7 0.0
26/09:30am 6.0 3.8 3.3 83 1.1 SE 4 7 2 4 1022.6 1022.9 0.0
26/09:00am 5.0 2.4 3.0 87 0.8 ESE 6 9 3 5 1022.4 1022.7 0.0
26/08:30am 3.4 0.7 2.8 96 0.2 ESE 6 9 3 5 1022.3 1022.6 0.0
26/08:00am 2.1 0.4 2.0 99 0.0 CALM 0 6 0 3 1022.3 1022.6 0.0
26/07:33am 1.3 -1.6 1.2 99 0.0 SE 6 7 3 4 1022.0 1022.3 0.0
26/07:30am 1.2 -1.9 1.1 99 0.0 SSE 7 9 4 5 1021.9 1022.2 0.0
26/07:00am 0.5 -2.6 0.4 99 0.0 SSW 6 7 3 4 1021.5 1021.8 0.0
26/06:30am 0.0 -2.4 -0.1 99 0.0 WSW 2 6 1 3 1021.0 1021.3 0.0
26/06:18am -0.1 -2.1 -0.2 99 0.0 CALM 0 0 0 0 1020.8 1021.1 0.0
26/06:14am 0.2 -1.8 0.1 99 0.0 CALM 0 0 0 0 1020.7 1021.0 0.0
26/06:00am -0.3 -3.7 -0.4 99 0.0 SE 7 11 4 6 1020.5 1020.8 0.0
26/05:30am 0.6 -1.3 0.5 99 0.0 CALM 0 0 0 0 1020.3 1020.6 0.0
26/05:29am 0.6 -1.3 0.5 99 0.0 CALM 0 0 0 0 1020.3 1020.6 0.0
26/05:00am 0.9 -2.3 0.8 99 0.0 ESE 7 9 4 5 1019.9 1020.1 0.0
26/04:30am 1.1 -2.1 1.0 99 0.0 ESE 7 9 4 5 1019.6 1019.8 0.0
26/04:17am 1.1 -2.1 1.0 99 0.0 SE 7 9 4 5 1019.4 1019.6 0.0
26/04:00am 1.0 -2.2 0.9 99 0.0 SE 7 9 4 5 1019.2 1019.4 0.0
26/03:50am 1.0 -0.8 0.9 99 0.0 CALM 0 7 0 4 1019.2 1019.4 0.0
26/03:30am 1.3 -0.5 1.0 98 0.1 CALM 0 0 0 0 1019.2 1019.4 0.0
26/03:00am 1.8 0.0 1.4 97 0.2 CALM 0 0 0 0 1019.2 1019.4 0.0
26/02:30am 1.9 -0.6 1.5 97 0.2 N 4 6 2 3 1019.1 1019.3 0.0
26/02:00am 2.2 -0.9 1.6 96 0.2 ESE 7 9 4 5 1019.0 1019.2 0.0
26/01:30am 2.2 0.4 1.3 94 0.3 CALM 0 0 0 0 1018.9 1019.1 0.0
26/01:00am 3.5 0.3 2.8 95 0.3 SE 9 13 5 7 1018.8 1019.0 0.0
26/12:30am 3.2 -0.2 1.7 90 0.6 E 9 11 5 6 1018.7 1018.9 0.0
26/12:00am 4.9 1.2 2.6 85 0.9 S 11 15 6 8 1018.6 1018.8 0.0
 
Date/Time
EST
Temp
°C
App
Temp
°C
Dew
Point
°C
Rel
Hum
%
Delta-T
°C
Wind Press
QNH
hPa
Press
MSL
hPa
Rain since
9am
mm
Dir  Spd
km/h
Gust
km/h
Spd
kts
Gust
kts
25/11:30pm 5.7 1.7 3.0 83 1.1 SW 13 17 7 9 1018.5 1018.7 0.0
25/11:00pm 6.0 1.7 3.2 82 1.2 SW 15 19 8 10 1018.5 1018.7 0.0
25/10:30pm 6.0 1.7 3.2 82 1.2 SW 15 17 8 9 - - 0.0
25/10:00pm 5.5 1.5 2.8 83 1.1 SW 13 15 7 8 1018.1 1018.4 0.0
25/09:30pm 5.5 1.5 2.8 83 1.1 SW 13 15 7 8 1017.9 1018.2 0.0
25/09:00pm 5.5 1.1 2.8 83 1.1 WSW 15 19 8 10 1017.7 1018.0 0.0
25/08:30pm 5.6 1.6 2.9 83 1.1 SW 13 17 7 9 1017.6 1017.9 0.0
25/08:00pm 6.8 2.8 3.1 77 1.6 SW 13 17 7 9 1017.2 1017.5 0.0
25/07:30pm 7.3 3.0 3.2 75 1.7 SW 15 17 8 9 1016.7 1017.0 0.0
25/07:00pm 7.9 3.6 3.2 72 2.0 SW 15 20 8 11 1016.2 1016.5 0.0

Other Formats:

Comma delimited format used in spreadsheet applications
http://www.bom.gov.au/fwo/IDV60801/IDV60801.94889.axf

JavaScript Object Notation format (JSON) in row-major order
http://www.bom.gov.au/fwo/IDV60801/IDV60801.94889.json